sensor_id;sensor_type;location;lat;lon;timestamp;temperature;humidity
52275;DHT22;38228;50.940;4.024;2023-12-28T00:02:11;10.70;99.90
52275;DHT22;38228;50.940;4.024;2023-12-28T00:04:38;10.70;99.90
52275;DHT22;38228;50.940;4.024;2023-12-28T00:07:04;10.70;99.90
52275;DHT22;38228;50.940;4.024;2023-12-28T00:09:30;10.70;99.90
52275;DHT22;38228;50.940;4.024;2023-12-28T00:11:55;10.70;99.90
52275;DHT22;38228;50.940;4.024;2023-12-28T00:14:21;10.60;99.90
52275;DHT22;38228;50.940;4.024;2023-12-28T00:16:47;10.70;99.90
52275;DHT22;38228;50.940;4.024;2023-12-28T00:19:12;10.60;99.90
52275;DHT22;38228;50.940;4.024;2023-12-28T00:21:38;10.50;99.90
52275;DHT22;38228;50.940;4.024;2023-12-28T00:24:04;10.50;99.90
52275;DHT22;38228;50.940;4.024;2023-12-28T00:26:30;10.50;99.90
52275;DHT22;38228;50.940;4.024;2023-12-28T00:28:55;10.70;99.90
52275;DHT22;38228;50.940;4.024;2023-12-28T00:31:21;10.70;99.90
52275;DHT22;38228;50.940;4.024;2023-12-28T00:33:47;10.80;99.90
52275;DHT22;38228;50.940;4.024;2023-12-28T00:36:14;10.70;99.90
52275;DHT22;38228;50.940;4.024;2023-12-28T00:38:39;10.70;99.90
52275;DHT22;38228;50.940;4.024;2023-12-28T00:41:05;10.80;99.90
52275;DHT22;38228;50.940;4.024;2023-12-28T00:43:31;10.70;99.90
52275;DHT22;38228;50.940;4.024;2023-12-28T00:45:56;10.70;99.90
52275;DHT22;38228;50.940;4.024;2023-12-28T00:48:22;10.60;99.90
52275;DHT22;38228;50.940;4.024;2023-12-28T00:50:48;10.60;99.90
52275;DHT22;38228;50.940;4.024;2023-12-28T00:53:13;10.60;99.90
52275;DHT22;38228;50.940;4.024;2023-12-28T00:55:39;10.60;99.90
52275;DHT22;38228;50.940;4.024;2023-12-28T00:58:05;10.70;99.90
52275;DHT22;38228;50.940;4.024;2023-12-28T01:00:30;10.60;99.90
52275;DHT22;38228;50.940;4.024;2023-12-28T01:02:56;10.60;99.90
52275;DHT22;38228;50.940;4.024;2023-12-28T01:05:22;10.60;99.90
52275;DHT22;38228;50.940;4.024;2023-12-28T01:07:51;10.60;99.90
52275;DHT22;38228;50.940;4.024;2023-12-28T01:10:17;10.60;99.90
52275;DHT22;38228;50.940;4.024;2023-12-28T01:12:43;10.60;99.90
52275;DHT22;38228;50.940;4.024;2023-12-28T01:15:09;10.60;99.90
52275;DHT22;38228;50.940;4.024;2023-12-28T01:17:35;10.60;99.90
52275;DHT22;38228;50.940;4.024;2023-12-28T01:20:00;10.60;99.90
52275;DHT22;38228;50.940;4.024;2023-12-28T01:22:26;10.50;99.90
52275;DHT22;38228;50.940;4.024;2023-12-28T01:24:52;10.60;99.90
52275;DHT22;38228;50.940;4.024;2023-12-28T01:27:18;10.60;99.90
52275;DHT22;38228;50.940;4.024;2023-12-28T01:29:43;10.50;99.90
52275;DHT22;38228;50.940;4.024;2023-12-28T01:32:09;10.50;99.90
52275;DHT22;38228;50.940;4.024;2023-12-28T01:34:35;10.50;99.90
52275;DHT22;38228;50.940;4.024;2023-12-28T01:37:00;10.50;99.90
52275;DHT22;38228;50.940;4.024;2023-12-28T01:39:26;10.50;99.90
52275;DHT22;38228;50.940;4.024;2023-12-28T01:41:52;10.60;99.90
52275;DHT22;38228;50.940;4.024;2023-12-28T01:44:17;10.50;99.90
52275;DHT22;38228;50.940;4.024;2023-12-28T01:46:43;10.50;99.90
52275;DHT22;38228;50.940;4.024;2023-12-28T01:49:09;10.50;99.90
52275;DHT22;38228;50.940;4.024;2023-12-28T01:51:35;10.60;99.90
52275;DHT22;38228;50.940;4.024;2023-12-28T01:54:01;10.60;99.90
52275;DHT22;38228;50.940;4.024;2023-12-28T01:56:27;10.50;99.90
52275;DHT22;38228;50.940;4.024;2023-12-28T01:58:53;10.50;99.90
52275;DHT22;38228;50.940;4.024;2023-12-28T02:01:20;10.40;99.90
52275;DHT22;38228;50.940;4.024;2023-12-28T02:03:46;10.50;99.90
52275;DHT22;38228;50.940;4.024;2023-12-28T02:06:13;10.50;99.90
52275;DHT22;38228;50.940;4.024;2023-12-28T02:08:41;10.50;99.90
52275;DHT22;38228;50.940;4.024;2023-12-28T02:11:07;10.60;99.90
52275;DHT22;38228;50.940;4.024;2023-12-28T02:13:33;10.60;99.90
52275;DHT22;38228;50.940;4.024;2023-12-28T02:16:06;10.60;99.90
52275;DHT22;38228;50.940;4.024;2023-12-28T02:18:42;10.60;99.90
52275;DHT22;38228;50.940;4.024;2023-12-28T02:21:08;10.50;99.90
52275;DHT22;38228;50.940;4.024;2023-12-28T02:23:34;10.50;99.90
52275;DHT22;38228;50.940;4.024;2023-12-28T02:26:00;10.50;99.90
52275;DHT22;38228;50.940;4.024;2023-12-28T02:28:26;10.60;99.90
52275;DHT22;38228;50.940;4.024;2023-12-28T02:30:52;10.50;99.90
52275;DHT22;38228;50.940;4.024;2023-12-28T02:33:38;10.50;99.90
52275;DHT22;38228;50.940;4.024;2023-12-28T02:36:10;10.50;99.90
52275;DHT22;38228;50.940;4.024;2023-12-28T02:38:37;10.40;99.90
52275;DHT22;38228;50.940;4.024;2023-12-28T02:41:04;10.40;99.90
52275;DHT22;38228;50.940;4.024;2023-12-28T02:43:30;10.40;99.90
52275;DHT22;38228;50.940;4.024;2023-12-28T02:45:58;10.50;99.90
52275;DHT22;38228;50.940;4.024;2023-12-28T02:48:24;10.50;99.90
52275;DHT22;38228;50.940;4.024;2023-12-28T02:50:51;10.60;99.90
52275;DHT22;38228;50.940;4.024;2023-12-28T02:53:17;10.60;99.90
52275;DHT22;38228;50.940;4.024;2023-12-28T02:55:42;10.60;99.90
52275;DHT22;38228;50.940;4.024;2023-12-28T02:58:08;10.50;99.90
52275;DHT22;38228;50.940;4.024;2023-12-28T03:00:34;10.50;99.90
52275;DHT22;38228;50.940;4.024;2023-12-28T03:02:59;10.50;99.90
52275;DHT22;38228;50.940;4.024;2023-12-28T03:05:25;10.50;99.90
52275;DHT22;38228;50.940;4.024;2023-12-28T03:07:51;10.40;99.90
52275;DHT22;38228;50.940;4.024;2023-12-28T03:10:16;10.40;99.90
52275;DHT22;38228;50.940;4.024;2023-12-28T03:12:42;10.40;99.90
52275;DHT22;38228;50.940;4.024;2023-12-28T03:15:08;10.40;99.90
52275;DHT22;38228;50.940;4.024;2023-12-28T03:17:34;10.40;99.90
52275;DHT22;38228;50.940;4.024;2023-12-28T03:20:02;10.30;99.90
52275;DHT22;38228;50.940;4.024;2023-12-28T03:22:28;10.30;99.90
52275;DHT22;38228;50.940;4.024;2023-12-28T03:24:53;10.30;99.90
52275;DHT22;38228;50.940;4.024;2023-12-28T03:27:19;10.20;99.90
52275;DHT22;38228;50.940;4.024;2023-12-28T03:29:45;10.20;99.90
52275;DHT22;38228;50.940;4.024;2023-12-28T03:32:10;10.20;99.90
52275;DHT22;38228;50.940;4.024;2023-12-28T03:34:36;10.20;99.90
52275;DHT22;38228;50.940;4.024;2023-12-28T03:37:02;10.10;99.90
52275;DHT22;38228;50.940;4.024;2023-12-28T03:39:28;10.20;99.90
52275;DHT22;38228;50.940;4.024;2023-12-28T03:41:54;10.30;99.90
52275;DHT22;38228;50.940;4.024;2023-12-28T03:44:20;10.30;99.90
52275;DHT22;38228;50.940;4.024;2023-12-28T03:46:50;10.20;99.90
52275;DHT22;38228;50.940;4.024;2023-12-28T03:49:19;10.20;99.90
52275;DHT22;38228;50.940;4.024;2023-12-28T03:51:46;10.20;99.90
52275;DHT22;38228;50.940;4.024;2023-12-28T03:54:12;10.30;99.90
52275;DHT22;38228;50.940;4.024;2023-12-28T03:56:41;10.20;99.90
52275;DHT22;38228;50.940;4.024;2023-12-28T03:59:08;10.10;99.90
52275;DHT22;38228;50.940;4.024;2023-12-28T04:01:34;10.10;99.90
52275;DHT22;38228;50.940;4.024;2023-12-28T04:04:00;10.10;99.90
52275;DHT22;38228;50.940;4.024;2023-12-28T04:06:26;10.10;99.90
52275;DHT22;38228;50.940;4.024;2023-12-28T04:08:51;10.10;99.90
52275;DHT22;38228;50.940;4.024;2023-12-28T04:11:17;10.10;99.90
52275;DHT22;38228;50.940;4.024;2023-12-28T04:13:43;10.20;99.90
52275;DHT22;38228;50.940;4.024;2023-12-28T04:16:12;10.20;99.90
52275;DHT22;38228;50.940;4.024;2023-12-28T04:18:38;10.20;99.90
52275;DHT22;38228;50.940;4.024;2023-12-28T04:21:08;10.20;99.90
52275;DHT22;38228;50.940;4.024;2023-12-28T04:23:35;10.20;99.90
52275;DHT22;38228;50.940;4.024;2023-12-28T04:26:01;10.30;99.90
52275;DHT22;38228;50.940;4.024;2023-12-28T04:28:26;10.40;99.90
52275;DHT22;38228;50.940;4.024;2023-12-28T04:30:52;10.40;99.90
52275;DHT22;38228;50.940;4.024;2023-12-28T04:33:18;10.40;99.90
52275;DHT22;38228;50.940;4.024;2023-12-28T04:35:45;10.40;99.90
52275;DHT22;38228;50.940;4.024;2023-12-28T04:38:11;10.40;99.90
52275;DHT22;38228;50.940;4.024;2023-12-28T04:40:36;10.40;99.90
52275;DHT22;38228;50.940;4.024;2023-12-28T04:43:02;10.40;99.90
52275;DHT22;38228;50.940;4.024;2023-12-28T04:45:29;10.50;99.90
52275;DHT22;38228;50.940;4.024;2023-12-28T04:47:55;10.50;99.90
52275;DHT22;38228;50.940;4.024;2023-12-28T04:50:20;10.40;99.90
52275;DHT22;38228;50.940;4.024;2023-12-28T04:52:46;10.40;99.90
52275;DHT22;38228;50.940;4.024;2023-12-28T04:55:12;10.30;99.90
52275;DHT22;38228;50.940;4.024;2023-12-28T04:57:37;10.20;99.90
52275;DHT22;38228;50.940;4.024;2023-12-28T05:00:04;10.20;99.90
52275;DHT22;38228;50.940;4.024;2023-12-28T05:02:30;10.40;99.90
52275;DHT22;38228;50.940;4.024;2023-12-28T05:04:55;10.40;99.90
52275;DHT22;38228;50.940;4.024;2023-12-28T05:07:21;10.30;99.90
52275;DHT22;38228;50.940;4.024;2023-12-28T05:09:47;10.40;99.90
52275;DHT22;38228;50.940;4.024;2023-12-28T05:12:13;10.40;99.90
52275;DHT22;38228;50.940;4.024;2023-12-28T05:14:38;10.40;99.90
52275;DHT22;38228;50.940;4.024;2023-12-28T05:17:04;10.40;99.90
52275;DHT22;38228;50.940;4.024;2023-12-28T05:19:30;10.40;99.90
52275;DHT22;38228;50.940;4.024;2023-12-28T05:21:55;10.50;99.90
52275;DHT22;38228;50.940;4.024;2023-12-28T05:24:21;10.40;99.90
52275;DHT22;38228;50.940;4.024;2023-12-28T05:26:47;10.40;99.90
52275;DHT22;38228;50.940;4.024;2023-12-28T05:29:12;10.40;99.90
52275;DHT22;38228;50.940;4.024;2023-12-28T05:31:38;10.40;99.90
52275;DHT22;38228;50.940;4.024;2023-12-28T05:34:04;10.40;99.90
52275;DHT22;38228;50.940;4.024;2023-12-28T05:36:30;10.40;99.90
52275;DHT22;38228;50.940;4.024;2023-12-28T05:38:56;10.40;99.90
52275;DHT22;38228;50.940;4.024;2023-12-28T05:41:22;10.50;99.90
52275;DHT22;38228;50.940;4.024;2023-12-28T05:43:47;10.40;99.90
52275;DHT22;38228;50.940;4.024;2023-12-28T05:46:13;10.30;99.90
52275;DHT22;38228;50.940;4.024;2023-12-28T05:48:39;10.40;99.90
52275;DHT22;38228;50.940;4.024;2023-12-28T05:51:05;10.20;99.90
52275;DHT22;38228;50.940;4.024;2023-12-28T05:53:30;10.20;99.90
52275;DHT22;38228;50.940;4.024;2023-12-28T05:55:56;10.30;99.90
52275;DHT22;38228;50.940;4.024;2023-12-28T05:58:22;10.20;99.90
52275;DHT22;38228;50.940;4.024;2023-12-28T06:00:47;10.20;99.90
52275;DHT22;38228;50.940;4.024;2023-12-28T06:03:14;10.20;99.90
52275;DHT22;38228;50.940;4.024;2023-12-28T06:05:39;10.30;99.90
52275;DHT22;38228;50.940;4.024;2023-12-28T06:08:05;10.10;99.90
52275;DHT22;38228;50.940;4.024;2023-12-28T06:10:31;10.10;99.90
52275;DHT22;38228;50.940;4.024;2023-12-28T06:12:57;10.10;99.90
52275;DHT22;38228;50.940;4.024;2023-12-28T06:15:23;10.10;99.90
52275;DHT22;38228;50.940;4.024;2023-12-28T06:17:49;10.10;99.90
52275;DHT22;38228;50.940;4.024;2023-12-28T06:20:14;10.10;99.90
52275;DHT22;38228;50.940;4.024;2023-12-28T06:22:40;10.10;99.90
52275;DHT22;38228;50.940;4.024;2023-12-28T06:25:06;10.10;99.90
52275;DHT22;38228;50.940;4.024;2023-12-28T06:27:32;10.10;99.90
52275;DHT22;38228;50.940;4.024;2023-12-28T06:29:58;10.10;99.90
52275;DHT22;38228;50.940;4.024;2023-12-28T06:32:24;10.00;99.90
52275;DHT22;38228;50.940;4.024;2023-12-28T06:34:50;10.00;99.90
52275;DHT22;38228;50.940;4.024;2023-12-28T06:37:15;10.00;99.90
52275;DHT22;38228;50.940;4.024;2023-12-28T06:39:41;9.90;99.90
52275;DHT22;38228;50.940;4.024;2023-12-28T06:42:07;9.90;99.90
52275;DHT22;38228;50.940;4.024;2023-12-28T06:44:33;9.90;99.90
52275;DHT22;38228;50.940;4.024;2023-12-28T06:46:59;10.00;99.90
52275;DHT22;38228;50.940;4.024;2023-12-28T06:49:25;10.00;99.90
52275;DHT22;38228;50.940;4.024;2023-12-28T06:51:51;10.00;99.90
52275;DHT22;38228;50.940;4.024;2023-12-28T06:54:17;10.00;99.90
52275;DHT22;38228;50.940;4.024;2023-12-28T06:56:43;9.90;99.90
52275;DHT22;38228;50.940;4.024;2023-12-28T06:59:09;10.00;99.90
52275;DHT22;38228;50.940;4.024;2023-12-28T07:01:38;9.90;99.90
52275;DHT22;38228;50.940;4.024;2023-12-28T07:04:04;9.90;99.90
52275;DHT22;38228;50.940;4.024;2023-12-28T07:06:30;9.80;99.90
52275;DHT22;38228;50.940;4.024;2023-12-28T07:08:56;9.90;99.90
52275;DHT22;38228;50.940;4.024;2023-12-28T07:11:21;9.80;99.90
52275;DHT22;38228;50.940;4.024;2023-12-28T07:13:48;9.90;99.90
52275;DHT22;38228;50.940;4.024;2023-12-28T07:16:13;9.90;99.90
52275;DHT22;38228;50.940;4.024;2023-12-28T07:18:39;9.80;99.90
52275;DHT22;38228;50.940;4.024;2023-12-28T07:21:05;9.80;99.90
52275;DHT22;38228;50.940;4.024;2023-12-28T07:23:34;9.90;99.90
52275;DHT22;38228;50.940;4.024;2023-12-28T07:26:00;9.90;99.90
52275;DHT22;38228;50.940;4.024;2023-12-28T07:28:26;10.00;99.90
52275;DHT22;38228;50.940;4.024;2023-12-28T07:30:51;10.00;99.90
52275;DHT22;38228;50.940;4.024;2023-12-28T07:33:17;9.90;99.90
52275;DHT22;38228;50.940;4.024;2023-12-28T07:35:43;9.80;99.90
52275;DHT22;38228;50.940;4.024;2023-12-28T07:38:08;9.80;99.90
52275;DHT22;38228;50.940;4.024;2023-12-28T07:40:34;9.80;99.90
52275;DHT22;38228;50.940;4.024;2023-12-28T07:43:00;9.80;99.90
52275;DHT22;38228;50.940;4.024;2023-12-28T07:45:26;9.70;99.90
52275;DHT22;38228;50.940;4.024;2023-12-28T07:47:52;9.70;99.90
52275;DHT22;38228;50.940;4.024;2023-12-28T07:50:18;9.80;99.90
52275;DHT22;38228;50.940;4.024;2023-12-28T07:52:45;9.80;99.90
52275;DHT22;38228;50.940;4.024;2023-12-28T07:55:11;9.80;99.90
52275;DHT22;38228;50.940;4.024;2023-12-28T07:57:37;9.70;99.90
52275;DHT22;38228;50.940;4.024;2023-12-28T08:00:03;9.70;99.90
52275;DHT22;38228;50.940;4.024;2023-12-28T08:02:29;9.80;99.90
52275;DHT22;38228;50.940;4.024;2023-12-28T08:04:55;9.90;99.90
52275;DHT22;38228;50.940;4.024;2023-12-28T08:07:20;9.90;99.90
52275;DHT22;38228;50.940;4.024;2023-12-28T08:09:46;9.90;99.90
52275;DHT22;38228;50.940;4.024;2023-12-28T08:12:12;9.90;99.90
52275;DHT22;38228;50.940;4.024;2023-12-28T08:14:37;10.00;99.90
52275;DHT22;38228;50.940;4.024;2023-12-28T08:17:03;10.00;99.90
52275;DHT22;38228;50.940;4.024;2023-12-28T08:19:29;10.00;99.90
52275;DHT22;38228;50.940;4.024;2023-12-28T08:21:54;10.00;99.90
52275;DHT22;38228;50.940;4.024;2023-12-28T08:24:20;10.00;99.90
52275;DHT22;38228;50.940;4.024;2023-12-28T08:26:46;9.90;99.90
52275;DHT22;38228;50.940;4.024;2023-12-28T08:29:12;9.90;99.90
52275;DHT22;38228;50.940;4.024;2023-12-28T08:31:38;10.00;99.90
52275;DHT22;38228;50.940;4.024;2023-12-28T08:34:03;10.00;99.90
52275;DHT22;38228;50.940;4.024;2023-12-28T08:36:29;10.00;99.90
52275;DHT22;38228;50.940;4.024;2023-12-28T08:38:55;10.00;99.90
52275;DHT22;38228;50.940;4.024;2023-12-28T08:41:22;10.10;99.90
52275;DHT22;38228;50.940;4.024;2023-12-28T08:43:50;10.10;99.90
52275;DHT22;38228;50.940;4.024;2023-12-28T08:46:16;10.20;99.90
52275;DHT22;38228;50.940;4.024;2023-12-28T08:48:42;10.20;99.90
52275;DHT22;38228;50.940;4.024;2023-12-28T08:51:11;10.10;99.90
52275;DHT22;38228;50.940;4.024;2023-12-28T08:53:39;10.00;99.90
52275;DHT22;38228;50.940;4.024;2023-12-28T08:56:19;10.10;99.90
52275;DHT22;38228;50.940;4.024;2023-12-28T08:58:46;10.20;99.90
52275;DHT22;38228;50.940;4.024;2023-12-28T09:01:21;10.20;99.90
52275;DHT22;38228;50.940;4.024;2023-12-28T09:03:52;10.30;99.90
52275;DHT22;38228;50.940;4.024;2023-12-28T09:06:18;10.30;99.90
52275;DHT22;38228;50.940;4.024;2023-12-28T09:08:45;10.20;99.90
52275;DHT22;38228;50.940;4.024;2023-12-28T09:11:13;10.40;99.90
52275;DHT22;38228;50.940;4.024;2023-12-28T09:13:39;10.50;99.90
52275;DHT22;38228;50.940;4.024;2023-12-28T09:16:13;10.50;99.90
52275;DHT22;38228;50.940;4.024;2023-12-28T09:18:39;10.50;99.90
52275;DHT22;38228;50.940;4.024;2023-12-28T09:21:05;10.60;99.90
52275;DHT22;38228;50.940;4.024;2023-12-28T09:23:32;10.70;99.90
52275;DHT22;38228;50.940;4.024;2023-12-28T09:26:05;10.70;99.90
52275;DHT22;38228;50.940;4.024;2023-12-28T09:28:31;10.80;99.90
52275;DHT22;38228;50.940;4.024;2023-12-28T09:30:57;10.70;99.90
52275;DHT22;38228;50.940;4.024;2023-12-28T09:33:23;10.70;99.90
52275;DHT22;38228;50.940;4.024;2023-12-28T09:35:49;10.70;99.90
52275;DHT22;38228;50.940;4.024;2023-12-28T09:38:15;10.80;99.90
52275;DHT22;38228;50.940;4.024;2023-12-28T09:40:44;10.80;99.90
52275;DHT22;38228;50.940;4.024;2023-12-28T09:43:13;10.80;99.90
52275;DHT22;38228;50.940;4.024;2023-12-28T09:45:40;10.80;99.90
52275;DHT22;38228;50.940;4.024;2023-12-28T09:48:06;10.90;99.90
52275;DHT22;38228;50.940;4.024;2023-12-28T09:50:32;11.00;99.90
52275;DHT22;38228;50.940;4.024;2023-12-28T09:52:59;11.00;99.90
52275;DHT22;38228;50.940;4.024;2023-12-28T09:55:24;11.00;99.90
52275;DHT22;38228;50.940;4.024;2023-12-28T09:57:51;11.00;99.90
52275;DHT22;38228;50.940;4.024;2023-12-28T10:00:17;11.10;99.90
52275;DHT22;38228;50.940;4.024;2023-12-28T10:02:44;11.20;99.90
52275;DHT22;38228;50.940;4.024;2023-12-28T10:05:14;11.10;99.90
52275;DHT22;38228;50.940;4.024;2023-12-28T10:07:44;11.20;99.90
52275;DHT22;38228;50.940;4.024;2023-12-28T10:10:10;11.20;99.90
52275;DHT22;38228;50.940;4.024;2023-12-28T10:12:37;11.20;99.90
52275;DHT22;38228;50.940;4.024;2023-12-28T10:15:04;11.30;99.90
52275;DHT22;38228;50.940;4.024;2023-12-28T10:17:32;11.40;99.90
52275;DHT22;38228;50.940;4.024;2023-12-28T10:19:57;11.20;99.90
52275;DHT22;38228;50.940;4.024;2023-12-28T10:22:29;11.20;99.90
52275;DHT22;38228;50.940;4.024;2023-12-28T10:24:55;11.40;99.90
52275;DHT22;38228;50.940;4.024;2023-12-28T10:27:20;11.40;99.90
52275;DHT22;38228;50.940;4.024;2023-12-28T10:29:46;11.40;99.90
52275;DHT22;38228;50.940;4.024;2023-12-28T10:32:12;11.40;99.90
52275;DHT22;38228;50.940;4.024;2023-12-28T10:34:38;11.30;99.90
52275;DHT22;38228;50.940;4.024;2023-12-28T10:37:05;11.30;99.90
52275;DHT22;38228;50.940;4.024;2023-12-28T10:39:32;11.20;99.90
52275;DHT22;38228;50.940;4.024;2023-12-28T10:42:00;11.30;99.90
52275;DHT22;38228;50.940;4.024;2023-12-28T10:44:32;11.40;99.90
52275;DHT22;38228;50.940;4.024;2023-12-28T10:47:02;11.40;99.90
52275;DHT22;38228;50.940;4.024;2023-12-28T10:49:30;11.40;99.90
52275;DHT22;38228;50.940;4.024;2023-12-28T10:51:59;11.40;99.90
52275;DHT22;38228;50.940;4.024;2023-12-28T10:54:47;11.70;99.90
52275;DHT22;38228;50.940;4.024;2023-12-28T10:57:23;11.80;99.90
52275;DHT22;38228;50.940;4.024;2023-12-28T11:00:07;11.60;99.90
52275;DHT22;38228;50.940;4.024;2023-12-28T11:02:41;11.50;99.90
52275;DHT22;38228;50.940;4.024;2023-12-28T11:05:11;11.50;99.90
52275;DHT22;38228;50.940;4.024;2023-12-28T11:07:38;11.60;99.90
52275;DHT22;38228;50.940;4.024;2023-12-28T11:10:06;11.50;99.90
52275;DHT22;38228;50.940;4.024;2023-12-28T11:12:32;11.50;99.90
52275;DHT22;38228;50.940;4.024;2023-12-28T11:14:59;11.60;99.90
52275;DHT22;38228;50.940;4.024;2023-12-28T11:17:25;11.50;99.90
52275;DHT22;38228;50.940;4.024;2023-12-28T11:19:53;11.50;99.90
52275;DHT22;38228;50.940;4.024;2023-12-28T11:22:20;11.60;99.90
52275;DHT22;38228;50.940;4.024;2023-12-28T11:24:46;11.60;99.90
52275;DHT22;38228;50.940;4.024;2023-12-28T11:27:12;11.70;99.90
52275;DHT22;38228;50.940;4.024;2023-12-28T11:29:38;11.70;99.90
52275;DHT22;38228;50.940;4.024;2023-12-28T11:32:04;11.60;99.90
52275;DHT22;38228;50.940;4.024;2023-12-28T11:34:32;11.80;99.90
52275;DHT22;38228;50.940;4.024;2023-12-28T11:37:07;11.80;99.90
52275;DHT22;38228;50.940;4.024;2023-12-28T11:39:38;11.80;99.90
52275;DHT22;38228;50.940;4.024;2023-12-28T11:42:09;11.80;99.90
52275;DHT22;38228;50.940;4.024;2023-12-28T11:44:42;11.80;99.90
52275;DHT22;38228;50.940;4.024;2023-12-28T11:47:16;11.80;99.90
52275;DHT22;38228;50.940;4.024;2023-12-28T11:49:43;11.90;99.90
52275;DHT22;38228;50.940;4.024;2023-12-28T11:52:29;11.90;99.90
52275;DHT22;38228;50.940;4.024;2023-12-28T11:54:55;11.90;99.90
52275;DHT22;38228;50.940;4.024;2023-12-28T11:57:21;11.90;99.90
52275;DHT22;38228;50.940;4.024;2023-12-28T11:59:52;11.70;99.90
52275;DHT22;38228;50.940;4.024;2023-12-28T12:02:19;11.60;99.90
52275;DHT22;38228;50.940;4.024;2023-12-28T12:04:45;11.70;99.90
52275;DHT22;38228;50.940;4.024;2023-12-28T12:07:11;11.60;99.90
52275;DHT22;38228;50.940;4.024;2023-12-28T12:09:36;11.80;99.90
52275;DHT22;38228;50.940;4.024;2023-12-28T12:12:03;11.70;99.90
52275;DHT22;38228;50.940;4.024;2023-12-28T12:14:29;11.70;99.90
52275;DHT22;38228;50.940;4.024;2023-12-28T12:16:56;11.80;99.90
52275;DHT22;38228;50.940;4.024;2023-12-28T12:19:25;11.90;99.90
52275;DHT22;38228;50.940;4.024;2023-12-28T12:21:57;12.00;99.90
52275;DHT22;38228;50.940;4.024;2023-12-28T12:24:23;12.00;99.90
52275;DHT22;38228;50.940;4.024;2023-12-28T12:26:51;12.00;99.90
52275;DHT22;38228;50.940;4.024;2023-12-28T12:29:17;12.00;99.90
52275;DHT22;38228;50.940;4.024;2023-12-28T12:31:44;12.00;99.90
52275;DHT22;38228;50.940;4.024;2023-12-28T12:34:15;12.00;99.90
52275;DHT22;38228;50.940;4.024;2023-12-28T12:36:41;12.10;99.90
52275;DHT22;38228;50.940;4.024;2023-12-28T12:39:09;12.10;99.90
52275;DHT22;38228;50.940;4.024;2023-12-28T12:41:37;12.00;99.90
52275;DHT22;38228;50.940;4.024;2023-12-28T12:44:04;12.00;99.90
52275;DHT22;38228;50.940;4.024;2023-12-28T12:46:30;12.00;99.90
52275;DHT22;38228;50.940;4.024;2023-12-28T12:48:59;11.90;99.90
52275;DHT22;38228;50.940;4.024;2023-12-28T12:51:26;11.80;99.90
52275;DHT22;38228;50.940;4.024;2023-12-28T12:53:59;11.80;99.90
52275;DHT22;38228;50.940;4.024;2023-12-28T12:56:28;11.80;99.90
52275;DHT22;38228;50.940;4.024;2023-12-28T12:58:54;11.80;99.90
52275;DHT22;38228;50.940;4.024;2023-12-28T13:01:20;11.80;99.90
52275;DHT22;38228;50.940;4.024;2023-12-28T13:03:46;11.80;99.90
52275;DHT22;38228;50.940;4.024;2023-12-28T13:06:12;11.70;99.90
52275;DHT22;38228;50.940;4.024;2023-12-28T13:08:38;11.80;99.90
52275;DHT22;38228;50.940;4.024;2023-12-28T13:11:04;11.80;99.90
52275;DHT22;38228;50.940;4.024;2023-12-28T13:13:32;11.90;99.90
52275;DHT22;38228;50.940;4.024;2023-12-28T13:15:58;12.00;99.90
52275;DHT22;38228;50.940;4.024;2023-12-28T13:18:24;11.90;99.90
52275;DHT22;38228;50.940;4.024;2023-12-28T13:20:50;12.00;99.90
52275;DHT22;38228;50.940;4.024;2023-12-28T13:23:16;12.00;99.90
52275;DHT22;38228;50.940;4.024;2023-12-28T13:25:41;12.00;99.90
52275;DHT22;38228;50.940;4.024;2023-12-28T13:28:08;12.00;99.90
52275;DHT22;38228;50.940;4.024;2023-12-28T13:30:35;12.10;99.90
52275;DHT22;38228;50.940;4.024;2023-12-28T13:33:02;12.00;99.90
52275;DHT22;38228;50.940;4.024;2023-12-28T13:35:28;12.10;99.90
52275;DHT22;38228;50.940;4.024;2023-12-28T13:37:54;12.10;99.90
52275;DHT22;38228;50.940;4.024;2023-12-28T13:40:20;12.00;99.90
52275;DHT22;38228;50.940;4.024;2023-12-28T13:42:46;12.00;99.90
52275;DHT22;38228;50.940;4.024;2023-12-28T13:45:12;12.00;99.90
52275;DHT22;38228;50.940;4.024;2023-12-28T13:47:38;11.90;99.90
52275;DHT22;38228;50.940;4.024;2023-12-28T13:50:04;11.90;99.90
52275;DHT22;38228;50.940;4.024;2023-12-28T13:52:31;11.90;99.90
52275;DHT22;38228;50.940;4.024;2023-12-28T13:54:57;11.80;99.90
52275;DHT22;38228;50.940;4.024;2023-12-28T13:57:23;11.80;99.90
52275;DHT22;38228;50.940;4.024;2023-12-28T13:59:49;12.00;99.90
52275;DHT22;38228;50.940;4.024;2023-12-28T14:02:14;11.90;99.90
52275;DHT22;38228;50.940;4.024;2023-12-28T14:04:40;11.80;99.90
52275;DHT22;38228;50.940;4.024;2023-12-28T14:07:06;11.80;99.90
52275;DHT22;38228;50.940;4.024;2023-12-28T14:09:31;11.80;99.90
52275;DHT22;38228;50.940;4.024;2023-12-28T14:11:58;11.80;99.90
52275;DHT22;38228;50.940;4.024;2023-12-28T14:14:24;11.60;99.90
52275;DHT22;38228;50.940;4.024;2023-12-28T14:16:50;11.70;99.90
52275;DHT22;38228;50.940;4.024;2023-12-28T14:19:15;11.80;99.90
52275;DHT22;38228;50.940;4.024;2023-12-28T14:21:41;11.90;99.90
52275;DHT22;38228;50.940;4.024;2023-12-28T14:24:07;11.90;99.90
52275;DHT22;38228;50.940;4.024;2023-12-28T14:26:34;11.70;99.90
52275;DHT22;38228;50.940;4.024;2023-12-28T14:29:03;11.80;99.90
52275;DHT22;38228;50.940;4.024;2023-12-28T14:31:31;11.70;99.90
52275;DHT22;38228;50.940;4.024;2023-12-28T14:33:57;11.80;99.90
52275;DHT22;38228;50.940;4.024;2023-12-28T14:36:36;11.80;99.90
52275;DHT22;38228;50.940;4.024;2023-12-28T14:39:04;11.90;99.90
52275;DHT22;38228;50.940;4.024;2023-12-28T14:41:31;11.80;99.90
52275;DHT22;38228;50.940;4.024;2023-12-28T14:43:57;11.80;99.90
52275;DHT22;38228;50.940;4.024;2023-12-28T14:46:24;11.80;99.90
52275;DHT22;38228;50.940;4.024;2023-12-28T14:48:50;11.80;99.90
52275;DHT22;38228;50.940;4.024;2023-12-28T14:51:16;11.60;99.90
52275;DHT22;38228;50.940;4.024;2023-12-28T14:53:41;11.60;99.90
52275;DHT22;38228;50.940;4.024;2023-12-28T14:56:07;11.60;99.90
52275;DHT22;38228;50.940;4.024;2023-12-28T14:58:33;11.50;99.90
52275;DHT22;38228;50.940;4.024;2023-12-28T15:00:58;11.50;99.90
52275;DHT22;38228;50.940;4.024;2023-12-28T15:03:24;11.50;99.90
52275;DHT22;38228;50.940;4.024;2023-12-28T15:05:51;11.50;99.90
52275;DHT22;38228;50.940;4.024;2023-12-28T15:08:17;11.40;99.90
52275;DHT22;38228;50.940;4.024;2023-12-28T15:10:43;11.40;99.90
52275;DHT22;38228;50.940;4.024;2023-12-28T15:13:10;11.40;99.90
52275;DHT22;38228;50.940;4.024;2023-12-28T15:15:36;11.40;99.90
52275;DHT22;38228;50.940;4.024;2023-12-28T15:18:02;11.50;99.90
52275;DHT22;38228;50.940;4.024;2023-12-28T15:20:28;11.50;99.90
52275;DHT22;38228;50.940;4.024;2023-12-28T15:22:56;11.40;99.90
52275;DHT22;38228;50.940;4.024;2023-12-28T15:25:22;11.30;99.90
52275;DHT22;38228;50.940;4.024;2023-12-28T15:27:47;11.30;99.90
52275;DHT22;38228;50.940;4.024;2023-12-28T15:30:13;11.40;99.90